sensor_id;sensor_type;location;lat;lon;timestamp;P1;durP1;ratioP1;P2;durP2;ratioP2
63193;SDS011;49289;51.670;5.624;2022-08-01T00:01:19;21.90;;;13.40;;
63193;SDS011;49289;51.670;5.624;2022-08-01T00:03:07;20.20;;;13.60;;
63193;SDS011;49289;51.670;5.624;2022-08-01T00:04:56;21.90;;;13.20;;
63193;SDS011;49289;51.670;5.624;2022-08-01T00:06:43;21.30;;;13.70;;
63193;SDS011;49289;51.670;5.624;2022-08-01T00:08:30;21.40;;;13.90;;
63193;SDS011;49289;51.670;5.624;2022-08-01T00:10:17;22.90;;;14.60;;
63193;SDS011;49289;51.670;5.624;2022-08-01T00:12:04;20.90;;;14.40;;
63193;SDS011;49289;51.670;5.624;2022-08-01T00:13:52;21.30;;;14.80;;
63193;SDS011;49289;51.670;5.624;2022-08-01T00:15:40;25.10;;;13.70;;
63193;SDS011;49289;51.670;5.624;2022-08-01T00:17:28;26.00;;;14.60;;
63193;SDS011;49289;51.670;5.624;2022-08-01T00:19:16;24.30;;;15.20;;
63193;SDS011;49289;51.670;5.624;2022-08-01T00:21:04;25.10;;;15.10;;
63193;SDS011;49289;51.670;5.624;2022-08-01T00:22:52;24.00;;;14.50;;
63193;SDS011;49289;51.670;5.624;2022-08-01T00:24:40;24.30;;;14.40;;
63193;SDS011;49289;51.670;5.624;2022-08-01T00:26:28;23.30;;;14.20;;
63193;SDS011;49289;51.670;5.624;2022-08-01T00:28:16;22.50;;;14.70;;
63193;SDS011;49289;51.670;5.624;2022-08-01T00:30:04;29.00;;;15.80;;
63193;SDS011;49289;51.670;5.624;2022-08-01T00:31:52;27.80;;;15.90;;
63193;SDS011;49289;51.670;5.624;2022-08-01T00:33:39;28.90;;;16.20;;
63193;SDS011;49289;51.670;5.624;2022-08-01T00:35:26;29.10;;;16.70;;
63193;SDS011;49289;51.670;5.624;2022-08-01T00:37:13;29.50;;;17.20;;
63193;SDS011;49289;51.670;5.624;2022-08-01T00:39:00;25.20;;;16.60;;
63193;SDS011;49289;51.670;5.624;2022-08-01T00:40:47;22.70;;;15.10;;
63193;SDS011;49289;51.670;5.624;2022-08-01T00:42:34;22.80;;;14.80;;
63193;SDS011;49289;51.670;5.624;2022-08-01T00:44:21;22.00;;;14.00;;
63193;SDS011;49289;51.670;5.624;2022-08-01T00:46:08;18.20;;;12.30;;
63193;SDS011;49289;51.670;5.624;2022-08-01T00:47:55;20.70;;;12.50;;
63193;SDS011;49289;51.670;5.624;2022-08-01T00:49:42;20.40;;;12.30;;
63193;SDS011;49289;51.670;5.624;2022-08-01T00:51:29;16.80;;;11.60;;
63193;SDS011;49289;51.670;5.624;2022-08-01T00:53:17;16.10;;;10.80;;
63193;SDS011;49289;51.670;5.624;2022-08-01T00:55:05;16.20;;;10.40;;
63193;SDS011;49289;51.670;5.624;2022-08-01T00:56:53;15.10;;;10.30;;
63193;SDS011;49289;51.670;5.624;2022-08-01T00:58:40;14.10;;;10.40;;
63193;SDS011;49289;51.670;5.624;2022-08-01T01:00:27;17.00;;;9.80;;
63193;SDS011;49289;51.670;5.624;2022-08-01T01:02:14;15.30;;;9.80;;
63193;SDS011;49289;51.670;5.624;2022-08-01T01:04:01;14.10;;;9.90;;
63193;SDS011;49289;51.670;5.624;2022-08-01T01:05:51;14.70;;;9.50;;
63193;SDS011;49289;51.670;5.624;2022-08-01T01:07:40;14.80;;;10.00;;
63193;SDS011;49289;51.670;5.624;2022-08-01T01:09:30;14.00;;;10.00;;
63193;SDS011;49289;51.670;5.624;2022-08-01T01:11:20;14.10;;;9.60;;
63193;SDS011;49289;51.670;5.624;2022-08-01T01:13:09;14.90;;;10.00;;
63193;SDS011;49289;51.670;5.624;2022-08-01T01:14:56;14.90;;;9.90;;
63193;SDS011;49289;51.670;5.624;2022-08-01T01:16:44;16.10;;;9.80;;
63193;SDS011;49289;51.670;5.624;2022-08-01T01:18:32;15.90;;;9.90;;
63193;SDS011;49289;51.670;5.624;2022-08-01T01:20:21;18.30;;;10.50;;
63193;SDS011;49289;51.670;5.624;2022-08-01T01:22:08;17.40;;;10.20;;
63193;SDS011;49289;51.670;5.624;2022-08-01T01:24:02;14.80;;;9.90;;
63193;SDS011;49289;51.670;5.624;2022-08-01T01:26:01;15.00;;;9.90;;
63193;SDS011;49289;51.670;5.624;2022-08-01T01:27:51;16.30;;;10.60;;
63193;SDS011;49289;51.670;5.624;2022-08-01T01:29:39;15.50;;;10.50;;
63193;SDS011;49289;51.670;5.624;2022-08-01T01:31:26;17.80;;;10.40;;
63193;SDS011;49289;51.670;5.624;2022-08-01T01:33:14;14.90;;;9.90;;
63193;SDS011;49289;51.670;5.624;2022-08-01T01:35:03;17.90;;;10.60;;
63193;SDS011;49289;51.670;5.624;2022-08-01T01:36:51;18.00;;;10.50;;
63193;SDS011;49289;51.670;5.624;2022-08-01T01:38:39;13.80;;;10.50;;
63193;SDS011;49289;51.670;5.624;2022-08-01T01:40:26;16.20;;;10.10;;
63193;SDS011;49289;51.670;5.624;2022-08-01T01:42:13;15.80;;;10.20;;
63193;SDS011;49289;51.670;5.624;2022-08-01T01:44:00;16.00;;;10.50;;
63193;SDS011;49289;51.670;5.624;2022-08-01T01:45:47;17.10;;;11.10;;
63193;SDS011;49289;51.670;5.624;2022-08-01T01:47:34;15.40;;;10.80;;
63193;SDS011;49289;51.670;5.624;2022-08-01T01:49:21;16.40;;;11.50;;
63193;SDS011;49289;51.670;5.624;2022-08-01T01:51:10;15.80;;;11.10;;
63193;SDS011;49289;51.670;5.624;2022-08-01T01:52:58;15.70;;;12.10;;
63193;SDS011;49289;51.670;5.624;2022-08-01T01:54:46;19.50;;;11.50;;
63193;SDS011;49289;51.670;5.624;2022-08-01T01:56:34;17.20;;;11.30;;
63193;SDS011;49289;51.670;5.624;2022-08-01T01:58:22;20.40;;;11.90;;
63193;SDS011;49289;51.670;5.624;2022-08-01T02:00:11;16.10;;;12.10;;
63193;SDS011;49289;51.670;5.624;2022-08-01T02:01:59;19.20;;;12.50;;
63193;SDS011;49289;51.670;5.624;2022-08-01T02:03:45;19.10;;;12.00;;
63193;SDS011;49289;51.670;5.624;2022-08-01T02:05:32;18.70;;;12.50;;
63193;SDS011;49289;51.670;5.624;2022-08-01T02:07:20;18.30;;;12.20;;
63193;SDS011;49289;51.670;5.624;2022-08-01T02:09:07;18.10;;;12.80;;
63193;SDS011;49289;51.670;5.624;2022-08-01T02:10:55;18.60;;;12.50;;
63193;SDS011;49289;51.670;5.624;2022-08-01T02:12:43;18.10;;;12.00;;
63193;SDS011;49289;51.670;5.624;2022-08-01T02:14:31;18.30;;;11.70;;
63193;SDS011;49289;51.670;5.624;2022-08-01T02:16:20;18.50;;;12.00;;
63193;SDS011;49289;51.670;5.624;2022-08-01T02:18:08;19.30;;;12.00;;
63193;SDS011;49289;51.670;5.624;2022-08-01T02:19:56;19.00;;;11.60;;
63193;SDS011;49289;51.670;5.624;2022-08-01T02:21:44;16.60;;;11.90;;
63193;SDS011;49289;51.670;5.624;2022-08-01T02:23:31;17.00;;;11.50;;
63193;SDS011;49289;51.670;5.624;2022-08-01T02:25:20;16.50;;;11.70;;
63193;SDS011;49289;51.670;5.624;2022-08-01T02:27:12;16.10;;;11.30;;
63193;SDS011;49289;51.670;5.624;2022-08-01T02:28:54;16.20;;;11.50;;
63193;SDS011;49289;51.670;5.624;2022-08-01T02:30:42;15.20;;;11.20;;
63193;SDS011;49289;51.670;5.624;2022-08-01T02:32:30;16.90;;;11.60;;
63193;SDS011;49289;51.670;5.624;2022-08-01T02:34:18;16.40;;;11.20;;
63193;SDS011;49289;51.670;5.624;2022-08-01T02:36:06;15.20;;;10.90;;
63193;SDS011;49289;51.670;5.624;2022-08-01T02:37:56;16.00;;;11.20;;
63193;SDS011;49289;51.670;5.624;2022-08-01T02:39:42;16.30;;;10.90;;
63193;SDS011;49289;51.670;5.624;2022-08-01T02:41:30;16.80;;;11.10;;
63193;SDS011;49289;51.670;5.624;2022-08-01T02:43:18;16.40;;;11.00;;
63193;SDS011;49289;51.670;5.624;2022-08-01T02:45:06;18.20;;;10.60;;
63193;SDS011;49289;51.670;5.624;2022-08-01T02:46:54;16.80;;;10.70;;
63193;SDS011;49289;51.670;5.624;2022-08-01T02:48:42;16.00;;;11.20;;
63193;SDS011;49289;51.670;5.624;2022-08-01T02:50:30;16.90;;;11.50;;
63193;SDS011;49289;51.670;5.624;2022-08-01T02:52:19;17.00;;;11.00;;
63193;SDS011;49289;51.670;5.624;2022-08-01T02:54:08;16.80;;;10.90;;
63193;SDS011;49289;51.670;5.624;2022-08-01T02:55:55;18.60;;;10.90;;
63193;SDS011;49289;51.670;5.624;2022-08-01T02:57:42;17.00;;;11.10;;
63193;SDS011;49289;51.670;5.624;2022-08-01T02:59:29;16.90;;;11.20;;
63193;SDS011;49289;51.670;5.624;2022-08-01T03:01:16;18.90;;;11.40;;
63193;SDS011;49289;51.670;5.624;2022-08-01T03:03:03;17.80;;;11.40;;
63193;SDS011;49289;51.670;5.624;2022-08-01T03:04:50;17.90;;;11.20;;
63193;SDS011;49289;51.670;5.624;2022-08-01T03:06:37;18.10;;;11.50;;
63193;SDS011;49289;51.670;5.624;2022-08-01T03:08:24;17.00;;;11.10;;
63193;SDS011;49289;51.670;5.624;2022-08-01T03:10:11;16.60;;;10.90;;
63193;SDS011;49289;51.670;5.624;2022-08-01T03:12:00;15.80;;;10.70;;
63193;SDS011;49289;51.670;5.624;2022-08-01T03:13:47;18.80;;;11.90;;
63193;SDS011;49289;51.670;5.624;2022-08-01T03:15:36;18.80;;;11.40;;
63193;SDS011;49289;51.670;5.624;2022-08-01T03:17:24;18.60;;;11.80;;
63193;SDS011;49289;51.670;5.624;2022-08-01T03:19:12;20.70;;;11.40;;
63193;SDS011;49289;51.670;5.624;2022-08-01T03:21:00;19.10;;;11.30;;
63193;SDS011;49289;51.670;5.624;2022-08-01T03:22:47;20.50;;;11.90;;
63193;SDS011;49289;51.670;5.624;2022-08-01T03:24:35;16.40;;;10.80;;
63193;SDS011;49289;51.670;5.624;2022-08-01T03:26:24;17.40;;;11.40;;
63193;SDS011;49289;51.670;5.624;2022-08-01T03:28:13;19.60;;;10.60;;
63193;SDS011;49289;51.670;5.624;2022-08-01T03:30:00;19.30;;;11.30;;
63193;SDS011;49289;51.670;5.624;2022-08-01T03:31:49;20.40;;;11.30;;
63193;SDS011;49289;51.670;5.624;2022-08-01T03:33:37;16.20;;;10.80;;
63193;SDS011;49289;51.670;5.624;2022-08-01T03:35:26;18.10;;;11.30;;
63193;SDS011;49289;51.670;5.624;2022-08-01T03:37:14;18.20;;;11.20;;
63193;SDS011;49289;51.670;5.624;2022-08-01T03:39:00;16.70;;;10.70;;
63193;SDS011;49289;51.670;5.624;2022-08-01T03:40:49;17.30;;;11.20;;
63193;SDS011;49289;51.670;5.624;2022-08-01T03:42:38;21.10;;;12.00;;
63193;SDS011;49289;51.670;5.624;2022-08-01T03:44:25;18.30;;;11.30;;
63193;SDS011;49289;51.670;5.624;2022-08-01T03:46:13;23.50;;;11.60;;
63193;SDS011;49289;51.670;5.624;2022-08-01T03:48:00;21.70;;;11.60;;
63193;SDS011;49289;51.670;5.624;2022-08-01T03:49:48;18.50;;;10.90;;
63193;SDS011;49289;51.670;5.624;2022-08-01T03:51:35;20.80;;;11.70;;
63193;SDS011;49289;51.670;5.624;2022-08-01T03:53:23;21.40;;;11.90;;
63193;SDS011;49289;51.670;5.624;2022-08-01T03:55:10;17.40;;;10.60;;
63193;SDS011;49289;51.670;5.624;2022-08-01T03:56:57;18.90;;;11.30;;
63193;SDS011;49289;51.670;5.624;2022-08-01T03:58:45;22.30;;;10.60;;
63193;SDS011;49289;51.670;5.624;2022-08-01T04:00:31;19.90;;;11.20;;
63193;SDS011;49289;51.670;5.624;2022-08-01T04:02:18;20.20;;;11.60;;
63193;SDS011;49289;51.670;5.624;2022-08-01T04:04:05;17.90;;;10.50;;
63193;SDS011;49289;51.670;5.624;2022-08-01T04:05:52;19.40;;;11.30;;
63193;SDS011;49289;51.670;5.624;2022-08-01T04:07:39;16.20;;;10.00;;
63193;SDS011;49289;51.670;5.624;2022-08-01T04:09:26;18.10;;;10.30;;
63193;SDS011;49289;51.670;5.624;2022-08-01T04:11:13;19.00;;;10.60;;
63193;SDS011;49289;51.670;5.624;2022-08-01T04:13:00;17.50;;;10.40;;
63193;SDS011;49289;51.670;5.624;2022-08-01T04:14:47;18.70;;;10.50;;
63193;SDS011;49289;51.670;5.624;2022-08-01T04:16:34;18.10;;;11.10;;
63193;SDS011;49289;51.670;5.624;2022-08-01T04:18:21;16.00;;;10.20;;
63193;SDS011;49289;51.670;5.624;2022-08-01T04:20:09;18.00;;;10.50;;
63193;SDS011;49289;51.670;5.624;2022-08-01T04:21:56;15.80;;;9.80;;
63193;SDS011;49289;51.670;5.624;2022-08-01T04:23:43;17.50;;;10.10;;
63193;SDS011;49289;51.670;5.624;2022-08-01T04:25:32;18.80;;;10.70;;
63193;SDS011;49289;51.670;5.624;2022-08-01T04:27:21;16.00;;;10.20;;
63193;SDS011;49289;51.670;5.624;2022-08-01T04:29:07;15.10;;;10.10;;
63193;SDS011;49289;51.670;5.624;2022-08-01T04:30:55;17.10;;;10.60;;
63193;SDS011;49289;51.670;5.624;2022-08-01T04:32:43;17.80;;;10.80;;
63193;SDS011;49289;51.670;5.624;2022-08-01T04:34:31;19.00;;;10.90;;
63193;SDS011;49289;51.670;5.624;2022-08-01T04:36:19;19.00;;;10.70;;
63193;SDS011;49289;51.670;5.624;2022-08-01T04:38:07;18.60;;;10.60;;
63193;SDS011;49289;51.670;5.624;2022-08-01T04:39:55;17.60;;;10.10;;
63193;SDS011;49289;51.670;5.624;2022-08-01T04:41:42;16.50;;;10.30;;
63193;SDS011;49289;51.670;5.624;2022-08-01T04:43:29;20.20;;;10.90;;
63193;SDS011;49289;51.670;5.624;2022-08-01T04:45:16;17.50;;;10.30;;
63193;SDS011;49289;51.670;5.624;2022-08-01T04:47:03;19.90;;;10.40;;
63193;SDS011;49289;51.670;5.624;2022-08-01T04:48:50;17.90;;;10.50;;
63193;SDS011;49289;51.670;5.624;2022-08-01T04:50:37;18.90;;;11.10;;
63193;SDS011;49289;51.670;5.624;2022-08-01T04:52:25;17.40;;;10.40;;
63193;SDS011;49289;51.670;5.624;2022-08-01T04:54:18;18.80;;;10.70;;
63193;SDS011;49289;51.670;5.624;2022-08-01T04:56:07;16.10;;;10.00;;
63193;SDS011;49289;51.670;5.624;2022-08-01T04:57:55;18.40;;;10.00;;
63193;SDS011;49289;51.670;5.624;2022-08-01T04:59:43;16.70;;;10.40;;
63193;SDS011;49289;51.670;5.624;2022-08-01T05:01:31;17.30;;;9.80;;
63193;SDS011;49289;51.670;5.624;2022-08-01T05:03:19;15.50;;;10.20;;
63193;SDS011;49289;51.670;5.624;2022-08-01T05:05:07;17.80;;;10.20;;
63193;SDS011;49289;51.670;5.624;2022-08-01T05:06:55;16.70;;;10.00;;
63193;SDS011;49289;51.670;5.624;2022-08-01T05:08:43;18.50;;;10.30;;
63193;SDS011;49289;51.670;5.624;2022-08-01T05:10:30;17.70;;;9.80;;
63193;SDS011;49289;51.670;5.624;2022-08-01T05:12:17;16.70;;;9.80;;
63193;SDS011;49289;51.670;5.624;2022-08-01T05:14:04;14.70;;;9.80;;
63193;SDS011;49289;51.670;5.624;2022-08-01T05:15:51;16.60;;;10.20;;
63193;SDS011;49289;51.670;5.624;2022-08-01T05:17:38;17.10;;;9.50;;
63193;SDS011;49289;51.670;5.624;2022-08-01T05:19:25;15.10;;;9.50;;
63193;SDS011;49289;51.670;5.624;2022-08-01T05:21:12;14.80;;;9.40;;
63193;SDS011;49289;51.670;5.624;2022-08-01T05:22:59;16.00;;;9.80;;
63193;SDS011;49289;51.670;5.624;2022-08-01T05:24:46;15.20;;;9.30;;
63193;SDS011;49289;51.670;5.624;2022-08-01T05:26:33;15.10;;;9.60;;
63193;SDS011;49289;51.670;5.624;2022-08-01T05:28:20;15.40;;;9.60;;
63193;SDS011;49289;51.670;5.624;2022-08-01T05:30:09;14.30;;;9.20;;
63193;SDS011;49289;51.670;5.624;2022-08-01T05:31:56;17.20;;;9.70;;
63193;SDS011;49289;51.670;5.624;2022-08-01T05:33:43;14.00;;;9.30;;
63193;SDS011;49289;51.670;5.624;2022-08-01T05:35:31;15.10;;;9.30;;
63193;SDS011;49289;51.670;5.624;2022-08-01T05:37:18;15.30;;;9.90;;
63193;SDS011;49289;51.670;5.624;2022-08-01T05:39:05;18.70;;;9.60;;
63193;SDS011;49289;51.670;5.624;2022-08-01T05:40:52;14.90;;;9.90;;
63193;SDS011;49289;51.670;5.624;2022-08-01T05:42:39;15.90;;;9.80;;
63193;SDS011;49289;51.670;5.624;2022-08-01T05:44:26;16.80;;;10.30;;
63193;SDS011;49289;51.670;5.624;2022-08-01T05:46:13;15.50;;;9.60;;
63193;SDS011;49289;51.670;5.624;2022-08-01T05:48:00;13.70;;;9.10;;
63193;SDS011;49289;51.670;5.624;2022-08-01T05:49:47;17.00;;;9.30;;
63193;SDS011;49289;51.670;5.624;2022-08-01T05:51:34;13.80;;;8.80;;
63193;SDS011;49289;51.670;5.624;2022-08-01T05:53:21;13.40;;;8.60;;
63193;SDS011;49289;51.670;5.624;2022-08-01T05:55:09;13.30;;;8.70;;
63193;SDS011;49289;51.670;5.624;2022-08-01T05:56:56;11.60;;;8.40;;
63193;SDS011;49289;51.670;5.624;2022-08-01T05:58:43;14.40;;;8.60;;
63193;SDS011;49289;51.670;5.624;2022-08-01T06:00:30;12.40;;;8.30;;
63193;SDS011;49289;51.670;5.624;2022-08-01T06:02:17;11.50;;;8.50;;
63193;SDS011;49289;51.670;5.624;2022-08-01T06:04:04;12.40;;;8.50;;
63193;SDS011;49289;51.670;5.624;2022-08-01T06:05:51;15.50;;;9.60;;
63193;SDS011;49289;51.670;5.624;2022-08-01T06:07:38;15.70;;;9.20;;
63193;SDS011;49289;51.670;5.624;2022-08-01T06:09:25;13.40;;;9.40;;
63193;SDS011;49289;51.670;5.624;2022-08-01T06:11:13;16.50;;;10.30;;
63193;SDS011;49289;51.670;5.624;2022-08-01T06:13:00;12.90;;;9.20;;
63193;SDS011;49289;51.670;5.624;2022-08-01T06:14:48;10.00;;;7.80;;
63193;SDS011;49289;51.670;5.624;2022-08-01T06:16:36;10.80;;;7.60;;
63193;SDS011;49289;51.670;5.624;2022-08-01T06:18:24;8.30;;;6.40;;
63193;SDS011;49289;51.670;5.624;2022-08-01T06:20:14;9.20;;;6.70;;
63193;SDS011;49289;51.670;5.624;2022-08-01T06:22:02;7.80;;;6.60;;
63193;SDS011;49289;51.670;5.624;2022-08-01T06:23:49;10.30;;;7.30;;
63193;SDS011;49289;51.670;5.624;2022-08-01T06:25:36;7.70;;;5.90;;
63193;SDS011;49289;51.670;5.624;2022-08-01T06:27:23;6.90;;;5.00;;
63193;SDS011;49289;51.670;5.624;2022-08-01T06:29:10;7.40;;;5.20;;
63193;SDS011;49289;51.670;5.624;2022-08-01T06:30:57;6.20;;;5.20;;
63193;SDS011;49289;51.670;5.624;2022-08-01T06:32:44;6.10;;;5.20;;
63193;SDS011;49289;51.670;5.624;2022-08-01T06:34:31;8.60;;;5.60;;
63193;SDS011;49289;51.670;5.624;2022-08-01T06:36:18;7.60;;;5.70;;
63193;SDS011;49289;51.670;5.624;2022-08-01T06:38:05;6.00;;;5.40;;
63193;SDS011;49289;51.670;5.624;2022-08-01T06:39:53;6.40;;;4.90;;
63193;SDS011;49289;51.670;5.624;2022-08-01T06:41:40;6.60;;;5.90;;
63193;SDS011;49289;51.670;5.624;2022-08-01T06:43:27;7.50;;;5.90;;
63193;SDS011;49289;51.670;5.624;2022-08-01T06:45:15;7.50;;;5.80;;
63193;SDS011;49289;51.670;5.624;2022-08-01T06:47:03;7.10;;;5.70;;
63193;SDS011;49289;51.670;5.624;2022-08-01T06:48:51;7.90;;;6.30;;
63193;SDS011;49289;51.670;5.624;2022-08-01T06:50:40;8.10;;;6.50;;
63193;SDS011;49289;51.670;5.624;2022-08-01T06:52:27;7.10;;;6.40;;
63193;SDS011;49289;51.670;5.624;2022-08-01T06:54:15;10.10;;;6.80;;
63193;SDS011;49289;51.670;5.624;2022-08-01T06:56:04;7.90;;;6.60;;
63193;SDS011;49289;51.670;5.624;2022-08-01T06:57:52;8.00;;;6.40;;
63193;SDS011;49289;51.670;5.624;2022-08-01T06:59:40;7.30;;;6.40;;
63193;SDS011;49289;51.670;5.624;2022-08-01T07:01:28;7.60;;;6.70;;
63193;SDS011;49289;51.670;5.624;2022-08-01T07:03:15;8.30;;;7.00;;
63193;SDS011;49289;51.670;5.624;2022-08-01T07:05:03;7.90;;;6.80;;
63193;SDS011;49289;51.670;5.624;2022-08-01T07:06:51;8.10;;;6.90;;
63193;SDS011;49289;51.670;5.624;2022-08-01T07:08:39;8.10;;;7.10;;
63193;SDS011;49289;51.670;5.624;2022-08-01T07:10:27;7.50;;;6.70;;
63193;SDS011;49289;51.670;5.624;2022-08-01T07:12:16;7.10;;;6.40;;
63193;SDS011;49289;51.670;5.624;2022-08-01T07:14:04;7.90;;;7.00;;
63193;SDS011;49289;51.670;5.624;2022-08-01T07:15:52;9.00;;;7.30;;
63193;SDS011;49289;51.670;5.624;2022-08-01T07:17:42;8.60;;;6.90;;
63193;SDS011;49289;51.670;5.624;2022-08-01T07:19:29;8.50;;;6.90;;
63193;SDS011;49289;51.670;5.624;2022-08-01T07:21:02;7.50;;;6.60;;
63193;SDS011;49289;51.670;5.624;2022-08-01T07:22:51;7.80;;;6.70;;
63193;SDS011;49289;51.670;5.624;2022-08-01T07:24:39;8.40;;;6.70;;
63193;SDS011;49289;51.670;5.624;2022-08-01T07:26:26;9.70;;;6.40;;
63193;SDS011;49289;51.670;5.624;2022-08-01T07:28:13;7.50;;;6.30;;
63193;SDS011;49289;51.670;5.624;2022-08-01T07:30:00;7.20;;;6.30;;
63193;SDS011;49289;51.670;5.624;2022-08-01T07:31:47;6.80;;;6.10;;
63193;SDS011;49289;51.670;5.624;2022-08-01T07:33:34;9.00;;;6.10;;
63193;SDS011;49289;51.670;5.624;2022-08-01T07:35:22;6.80;;;6.00;;
63193;SDS011;49289;51.670;5.624;2022-08-01T07:37:10;5.40;;;4.80;;
63193;SDS011;49289;51.670;5.624;2022-08-01T07:38:58;5.70;;;5.00;;
63193;SDS011;49289;51.670;5.624;2022-08-01T07:40:47;6.10;;;5.10;;
63193;SDS011;49289;51.670;5.624;2022-08-01T07:42:35;5.20;;;4.40;;
63193;SDS011;49289;51.670;5.624;2022-08-01T07:44:23;3.40;;;3.10;;
63193;SDS011;49289;51.670;5.624;2022-08-01T07:46:11;4.10;;;3.70;;
63193;SDS011;49289;51.670;5.624;2022-08-01T07:47:58;4.30;;;3.90;;
63193;SDS011;49289;51.670;5.624;2022-08-01T07:49:47;6.00;;;4.40;;
63193;SDS011;49289;51.670;5.624;2022-08-01T07:51:34;4.30;;;3.90;;
63193;SDS011;49289;51.670;5.624;2022-08-01T07:53:21;4.30;;;3.90;;
63193;SDS011;49289;51.670;5.624;2022-08-01T07:55:09;4.90;;;4.10;;
63193;SDS011;49289;51.670;5.624;2022-08-01T07:56:56;5.10;;;4.20;;
63193;SDS011;49289;51.670;5.624;2022-08-01T07:58:44;5.10;;;4.00;;
63193;SDS011;49289;51.670;5.624;2022-08-01T08:00:33;4.40;;;4.00;;
63193;SDS011;49289;51.670;5.624;2022-08-01T08:02:21;4.80;;;4.20;;
63193;SDS011;49289;51.670;5.624;2022-08-01T08:04:09;5.80;;;4.20;;
63193;SDS011;49289;51.670;5.624;2022-08-01T08:05:56;4.10;;;3.70;;
63193;SDS011;49289;51.670;5.624;2022-08-01T08:07:43;4.20;;;3.80;;
63193;SDS011;49289;51.670;5.624;2022-08-01T08:09:31;4.20;;;3.70;;
63193;SDS011;49289;51.670;5.624;2022-08-01T08:11:18;4.40;;;4.00;;
63193;SDS011;49289;51.670;5.624;2022-08-01T08:13:05;5.70;;;3.90;;
63193;SDS011;49289;51.670;5.624;2022-08-01T08:14:52;4.10;;;3.70;;
63193;SDS011;49289;51.670;5.624;2022-08-01T08:16:39;4.10;;;3.70;;
63193;SDS011;49289;51.670;5.624;2022-08-01T08:18:26;4.60;;;4.20;;
63193;SDS011;49289;51.670;5.624;2022-08-01T08:20:14;4.60;;;3.80;;
63193;SDS011;49289;51.670;5.624;2022-08-01T08:22:02;4.60;;;4.10;;
63193;SDS011;49289;51.670;5.624;2022-08-01T08:23:50;3.20;;;2.90;;
63193;SDS011;49289;51.670;5.624;2022-08-01T08:25:37;2.40;;;2.20;;
63193;SDS011;49289;51.670;5.624;2022-08-01T08:27:24;4.80;;;2.20;;
63193;SDS011;49289;51.670;5.624;2022-08-01T08:29:11;2.60;;;1.90;;
63193;SDS011;49289;51.670;5.624;2022-08-01T08:30:58;2.10;;;1.90;;
63193;SDS011;49289;51.670;5.624;2022-08-01T08:32:45;2.20;;;2.00;;
63193;SDS011;49289;51.670;5.624;2022-08-01T08:34:17;2.00;;;1.80;;
63193;SDS011;49289;51.670;5.624;2022-08-01T08:36:05;2.40;;;2.20;;
63193;SDS011;49289;51.670;5.624;2022-08-01T08:37:53;3.10;;;2.10;;
63193;SDS011;49289;51.670;5.624;2022-08-01T08:39:42;2.20;;;2.00;;
63193;SDS011;49289;51.670;5.624;2022-08-01T08:41:30;3.60;;;2.30;;
63193;SDS011;49289;51.670;5.624;2022-08-01T08:43:17;2.40;;;2.20;;
63193;SDS011;49289;51.670;5.624;2022-08-01T08:45:04;2.60;;;2.20;;
63193;SDS011;49289;51.670;5.624;2022-08-01T08:46:52;2.00;;;1.90;;
63193;SDS011;49289;51.670;5.624;2022-08-01T08:48:39;2.50;;;2.00;;
63193;SDS011;49289;51.670;5.624;2022-08-01T08:50:27;4.20;;;2.20;;
63193;SDS011;49289;51.670;5.624;2022-08-01T08:52:13;2.20;;;2.00;;
63193;SDS011;49289;51.670;5.624;2022-08-01T08:54:00;2.90;;;2.30;;
63193;SDS011;49289;51.670;5.624;2022-08-01T08:55:47;4.80;;;2.60;;
63193;SDS011;49289;51.670;5.624;2022-08-01T08:57:35;3.10;;;2.70;;
63193;SDS011;49289;51.670;5.624;2022-08-01T08:59:25;2.80;;;2.60;;
63193;SDS011;49289;51.670;5.624;2022-08-01T09:01:12;2.60;;;2.30;;
63193;SDS011;49289;51.670;5.624;2022-08-01T09:03:00;2.20;;;2.10;;
63193;SDS011;49289;51.670;5.624;2022-08-01T09:04:49;2.80;;;2.20;;
63193;SDS011;49289;51.670;5.624;2022-08-01T09:06:37;2.10;;;1.90;;
63193;SDS011;49289;51.670;5.624;2022-08-01T09:08:25;2.20;;;2.10;;
63193;SDS011;49289;51.670;5.624;2022-08-01T09:10:13;2.00;;;1.90;;
63193;SDS011;49289;51.670;5.624;2022-08-01T09:12:01;2.10;;;2.00;;
63193;SDS011;49289;51.670;5.624;2022-08-01T09:13:50;2.00;;;1.80;;
63193;SDS011;49289;51.670;5.624;2022-08-01T09:15:47;2.00;;;1.80;;
63193;SDS011;49289;51.670;5.624;2022-08-01T09:17:44;1.80;;;1.70;;
63193;SDS011;49289;51.670;5.624;2022-08-01T09:19:34;1.70;;;1.60;;
63193;SDS011;49289;51.670;5.624;2022-08-01T09:21:22;1.80;;;1.70;;
63193;SDS011;49289;51.670;5.624;2022-08-01T09:23:09;1.80;;;1.70;;
63193;SDS011;49289;51.670;5.624;2022-08-01T09:25:05;1.90;;;1.80;;
63193;SDS011;49289;51.670;5.624;2022-08-01T09:26:53;1.70;;;1.60;;
63193;SDS011;49289;51.670;5.624;2022-08-01T09:28:41;1.90;;;1.70;;
63193;SDS011;49289;51.670;5.624;2022-08-01T09:30:29;1.90;;;1.80;;
63193;SDS011;49289;51.670;5.624;2022-08-01T09:32:17;1.80;;;1.70;;
63193;SDS011;49289;51.670;5.624;2022-08-01T09:34:05;1.60;;;1.50;;
63193;SDS011;49289;51.670;5.624;2022-08-01T09:35:55;1.90;;;1.60;;
63193;SDS011;49289;51.670;5.624;2022-08-01T09:37:41;1.70;;;1.60;;
63193;SDS011;49289;51.670;5.624;2022-08-01T09:39:30;2.00;;;1.60;;
63193;SDS011;49289;51.670;5.624;2022-08-01T09:41:17;1.60;;;1.50;;
63193;SDS011;49289;51.670;5.624;2022-08-01T09:43:16;1.80;;;1.70;;
63193;SDS011;49289;51.670;5.624;2022-08-01T09:45:03;1.60;;;1.50;;
63193;SDS011;49289;51.670;5.624;2022-08-01T09:46:55;1.80;;;1.60;;
63193;SDS011;49289;51.670;5.624;2022-08-01T09:48:42;1.70;;;1.60;;
63193;SDS011;49289;51.670;5.624;2022-08-01T09:50:46;1.90;;;1.30;;
63193;SDS011;49289;51.670;5.624;2022-08-01T09:52:33;1.40;;;1.30;;
63193;SDS011;49289;51.670;5.624;2022-08-01T09:54:27;2.00;;;1.40;;
63193;SDS011;49289;51.670;5.624;2022-08-01T09:56:15;2.60;;;1.40;;
63193;SDS011;49289;51.670;5.624;2022-08-01T09:58:03;1.40;;;1.30;;
63193;SDS011;49289;51.670;5.624;2022-08-01T09:59:52;1.50;;;1.40;;
63193;SDS011;49289;51.670;5.624;2022-08-01T10:01:49;1.30;;;1.20;;
63193;SDS011;49289;51.670;5.624;2022-08-01T10:03:35;1.50;;;1.40;;
63193;SDS011;49289;51.670;5.624;2022-08-01T10:05:29;2.10;;;1.30;;
63193;SDS011;49289;51.670;5.624;2022-08-01T10:07:15;1.50;;;1.40;;
63193;SDS011;49289;51.670;5.624;2022-08-01T10:09:02;1.50;;;1.30;;
63193;SDS011;49289;51.670;5.624;2022-08-01T10:10:49;2.30;;;1.40;;
63193;SDS011;49289;51.670;5.624;2022-08-01T10:12:50;1.90;;;1.70;;
63193;SDS011;49289;51.670;5.624;2022-08-01T10:14:37;2.90;;;1.70;;
63193;SDS011;49289;51.670;5.624;2022-08-01T10:16:24;1.60;;;1.50;;
63193;SDS011;49289;51.670;5.624;2022-08-01T10:18:11;2.10;;;1.50;;
63193;SDS011;49289;51.670;5.624;2022-08-01T10:19:59;1.50;;;1.40;;
63193;SDS011;49289;51.670;5.624;2022-08-01T10:21:47;1.50;;;1.40;;
63193;SDS011;49289;51.670;5.624;2022-08-01T10:23:36;1.80;;;1.50;;
63193;SDS011;49289;51.670;5.624;2022-08-01T10:25:24;1.60;;;1.50;;
63193;SDS011;49289;51.670;5.624;2022-08-01T10:27:12;1.30;;;1.20;;
63193;SDS011;49289;51.670;5.624;2022-08-01T10:29:00;1.50;;;1.40;;
63193;SDS011;49289;51.670;5.624;2022-08-01T10:30:47;2.20;;;1.40;;
63193;SDS011;49289;51.670;5.624;2022-08-01T10:32:34;2.00;;;1.50;;
63193;SDS011;49289;51.670;5.624;2022-08-01T10:34:21;2.70;;;1.60;;
63193;SDS011;49289;51.670;5.624;2022-08-01T10:36:09;2.00;;;1.60;;
63193;SDS011;49289;51.670;5.624;2022-08-01T10:37:56;1.80;;;1.40;;
63193;SDS011;49289;51.670;5.624;2022-08-01T10:39:43;1.40;;;1.30;;